createdAt,value
2022-08-07T00:01:12.640Z,1.60
2022-08-07T00:03:55.144Z,1.75
2022-08-07T00:06:29.594Z,1.50
2022-08-07T00:11:53.988Z,1.42
2022-08-07T00:14:30.119Z,1.45
2022-08-07T00:17:01.771Z,1.40
2022-08-07T00:19:59.670Z,1.42
2022-08-07T00:22:24.592Z,1.30
2022-08-07T00:25:04.554Z,1.50
2022-08-07T00:27:51.947Z,1.40
2022-08-07T00:30:26.518Z,1.60
2022-08-07T00:32:57.029Z,1.58
2022-08-07T00:35:24.840Z,1.38
2022-08-07T00:37:52.079Z,1.50
2022-08-07T00:40:39.300Z,1.25
2022-08-07T00:43:09.924Z,1.30
2022-08-07T00:45:38.672Z,1.38
2022-08-07T00:48:10.818Z,1.20
2022-08-07T00:50:50.279Z,1.17
2022-08-07T00:53:20.116Z,1.13
2022-08-07T00:56:02.401Z,1.35
2022-08-07T00:58:31.099Z,0.88
2022-08-07T01:00:59.137Z,1.10
2022-08-07T01:03:55.393Z,1.00
2022-08-07T01:06:16.613Z,1.38
2022-08-07T01:08:53.576Z,1.27
2022-08-07T01:14:10.902Z,1.65
2022-08-07T01:16:38.555Z,1.38
2022-08-07T01:19:19.164Z,1.40
2022-08-07T01:21:53.200Z,1.20
2022-08-07T01:24:21.749Z,1.20
2022-08-07T01:26:51.922Z,1.08
2022-08-07T01:29:20.031Z,1.30
2022-08-07T01:31:48.584Z,1.23
2022-08-07T01:34:16.807Z,1.30
2022-08-07T01:36:45.178Z,1.13
2022-08-07T01:39:21.845Z,1.10
2022-08-07T01:42:07.481Z,1.10
2022-08-07T01:44:38.266Z,1.30
2022-08-07T01:48:16.479Z,3.60
2022-08-07T01:49:54.799Z,1.20
2022-08-07T01:52:26.638Z,1.55
2022-08-07T01:54:57.193Z,1.50
2022-08-07T01:57:29.253Z,1.30
2022-08-07T02:00:02.314Z,1.63
2022-08-07T02:03:11.955Z,1.40
2022-08-07T02:05:47.645Z,1.65
2022-08-07T02:08:17.407Z,1.33
2022-08-07T02:10:55.235Z,1.13
2022-08-07T02:13:58.277Z,1.23
2022-08-07T02:16:14.709Z,1.63
2022-08-07T02:18:46.836Z,1.88
2022-08-07T02:21:16.606Z,1.38
2022-08-07T02:23:45.965Z,1.70
2022-08-07T02:26:32.424Z,1.92
2022-08-07T02:29:03.108Z,1.30
2022-08-07T02:31:32.550Z,1.48
2022-08-07T02:34:03.950Z,1.42
2022-08-07T02:36:41.257Z,1.40
2022-08-07T02:39:17.458Z,1.63
2022-08-07T02:42:00.332Z,1.45
2022-08-07T02:44:34.449Z,1.75
2022-08-07T02:47:05.353Z,1.67
2022-08-07T02:49:57.877Z,1.60
2022-08-07T02:52:32.097Z,1.50
2022-08-07T02:55:04.887Z,1.73
2022-08-07T02:57:55.535Z,2.00
2022-08-07T03:00:23.628Z,1.60
2022-08-07T03:02:54.115Z,1.77
2022-08-07T03:05:24.448Z,1.40
2022-08-07T03:08:07.119Z,1.23
2022-08-07T03:10:46.315Z,1.55
2022-08-07T03:15:56.591Z,1.40
2022-08-07T03:18:34.834Z,1.30
2022-08-07T03:21:08.766Z,1.60
2022-08-07T03:24:17.897Z,1.40
2022-08-07T03:26:31.407Z,1.42
2022-08-07T03:29:02.364Z,1.35
2022-08-07T03:31:43.539Z,1.38
2022-08-07T03:34:18.905Z,1.40
2022-08-07T03:36:51.838Z,1.77
2022-08-07T03:39:59.975Z,2.08
2022-08-07T03:42:09.391Z,1.63
2022-08-07T03:44:38.595Z,1.65
2022-08-07T03:47:14.023Z,1.88
2022-08-07T03:49:48.000Z,2.05
2022-08-07T03:52:26.352Z,1.60
2022-08-07T03:54:57.399Z,1.60
2022-08-07T03:58:32.638Z,1.45
2022-08-07T04:00:17.700Z,1.58
2022-08-07T04:02:49.450Z,1.88
2022-08-07T04:05:20.421Z,1.77
2022-08-07T04:07:56.315Z,2.60
2022-08-07T04:10:23.796Z,2.42
2022-08-07T04:12:51.871Z,2.63
2022-08-07T04:15:21.131Z,2.40
2022-08-07T04:18:57.333Z,2.65
2022-08-07T04:20:38.696Z,2.17
2022-08-07T04:23:22.808Z,2.53
2022-08-07T04:25:50.924Z,2.50
2022-08-07T04:28:21.789Z,2.63
2022-08-07T04:30:56.968Z,3.13
2022-08-07T04:33:25.739Z,2.50
2022-08-07T04:35:54.376Z,2.38
2022-08-07T04:38:22.491Z,2.22
2022-08-07T04:40:52.555Z,2.08
2022-08-07T04:44:12.364Z,2.25
2022-08-07T04:46:25.935Z,1.92
2022-08-07T04:49:24.717Z,1.90
2022-08-07T04:52:01.640Z,1.80
2022-08-07T04:54:35.053Z,2.00
2022-08-07T04:58:15.261Z,2.75
2022-08-07T05:00:13.255Z,2.35
2022-08-07T05:02:54.853Z,1.90
2022-08-07T05:05:51.774Z,2.17
2022-08-07T05:09:00.097Z,1.95
2022-08-07T05:11:19.743Z,2.10
2022-08-07T05:14:53.189Z,1.85
2022-08-07T05:16:46.794Z,2.20
2022-08-07T05:19:32.568Z,1.83
2022-08-07T05:22:13.515Z,2.35
2022-08-07T05:24:55.337Z,2.20
2022-08-07T05:28:02.672Z,1.90
2022-08-07T05:30:12.666Z,2.08
2022-08-07T05:32:41.539Z,2.75
2022-08-07T05:35:12.651Z,3.13
2022-08-07T05:37:42.983Z,4.03
2022-08-07T05:40:18.889Z,3.83
2022-08-07T05:42:56.163Z,3.97
2022-08-07T05:45:28.249Z,3.78
2022-08-07T05:48:13.180Z,3.25
2022-08-07T05:50:43.394Z,2.80
2022-08-07T05:54:12.901Z,4.05
2022-08-07T05:56:03.751Z,3.50
2022-08-07T05:58:37.031Z,3.05
2022-08-07T06:01:06.232Z,2.30
2022-08-07T06:03:53.926Z,2.83
2022-08-07T06:06:29.362Z,2.40
2022-08-07T06:08:57.664Z,1.83
2022-08-07T06:11:26.692Z,1.95
2022-08-07T06:14:11.795Z,1.95
2022-08-07T06:16:50.663Z,1.92
2022-08-07T06:19:57.880Z,2.20
2022-08-07T06:22:23.589Z,1.90
2022-08-07T06:24:58.523Z,1.60
2022-08-07T06:28:00.565Z,1.90
2022-08-07T06:30:32.145Z,1.55
2022-08-07T06:33:04.906Z,1.90
2022-08-07T06:35:45.578Z,1.48
2022-08-07T06:38:20.293Z,1.40
2022-08-07T06:40:51.924Z,1.60
2022-08-07T06:43:23.646Z,1.73
2022-08-07T06:45:51.668Z,2.33
2022-08-07T06:48:25.236Z,1.25
2022-08-07T06:50:53.478Z,1.60
2022-08-07T06:55:27.863Z,1.00
2022-08-07T07:00:12.820Z,1.48
2022-08-07T07:01:42.073Z,1.42
2022-08-07T07:04:32.070Z,1.60
2022-08-07T07:07:10.681Z,1.17
2022-08-07T07:09:49.371Z,1.20
2022-08-07T07:12:31.285Z,1.30
2022-08-07T07:15:04.969Z,1.30
2022-08-07T07:17:45.437Z,1.38
2022-08-07T07:20:22.021Z,1.40
2022-08-07T07:23:06.051Z,1.20
2022-08-07T07:26:34.380Z,1.27
2022-08-07T07:28:48.365Z,1.50
2022-08-07T07:31:30.486Z,1.15
2022-08-07T07:34:13.252Z,1.20
2022-08-07T07:36:47.917Z,1.20
2022-08-07T07:39:21.486Z,1.30
2022-08-07T07:42:08.744Z,1.30
2022-08-07T07:44:43.612Z,1.30
2022-08-07T07:47:22.943Z,0.90
2022-08-07T07:50:35.021Z,1.30
2022-08-07T07:52:42.165Z,1.20
2022-08-07T07:55:11.573Z,1.25
2022-08-07T07:57:50.489Z,1.20
2022-08-07T08:00:34.052Z,1.27
2022-08-07T08:03:07.865Z,1.27
2022-08-07T08:05:42.724Z,1.55
2022-08-07T08:08:32.256Z,1.20
2022-08-07T08:11:01.658Z,1.10
2022-08-07T08:13:43.852Z,1.23
2022-08-07T08:16:25.172Z,1.00
2022-08-07T08:18:55.506Z,1.20
2022-08-07T08:21:25.407Z,1.52
2022-08-07T08:24:36.169Z,0.90
2022-08-07T08:27:05.916Z,1.40
2022-08-07T08:29:54.174Z,1.00
2022-08-07T08:32:38.452Z,1.10
2022-08-07T08:35:09.862Z,0.90
2022-08-07T08:38:08.131Z,1.00
2022-08-07T08:40:30.628Z,0.98
2022-08-07T08:43:08.886Z,1.10
2022-08-07T08:45:59.634Z,1.10
2022-08-07T08:48:38.337Z,1.15
2022-08-07T08:51:14.264Z,1.10
2022-08-07T08:53:47.383Z,1.00
2022-08-07T08:56:24.656Z,1.38
2022-08-07T08:58:56.806Z,1.20
2022-08-07T09:01:29.885Z,1.00
2022-08-07T09:04:13.384Z,1.00
2022-08-07T09:06:53.724Z,0.95
2022-08-07T09:09:42.701Z,1.00
2022-08-07T09:12:31.873Z,1.00
2022-08-07T09:16:24.886Z,1.10
2022-08-07T09:18:16.838Z,0.90
2022-08-07T09:21:01.086Z,0.80
2022-08-07T09:24:35.030Z,0.90
2022-08-07T09:26:57.187Z,0.90
2022-08-07T09:30:03.322Z,1.00
2022-08-07T09:32:55.471Z,0.90
2022-08-07T09:36:03.282Z,1.02
2022-08-07T09:42:09.962Z,1.10
2022-08-07T09:47:25.583Z,0.80
2022-08-07T09:48:19.408Z,0.95
2022-08-07T09:51:03.359Z,0.90
2022-08-07T09:53:55.105Z,1.00
2022-08-07T09:56:46.434Z,1.20
2022-08-07T09:59:35.855Z,1.10
2022-08-07T10:02:35.602Z,1.10
2022-08-07T10:05:58.107Z,1.00
2022-08-07T10:08:43.556Z,1.05
2022-08-07T10:12:01.754Z,0.82
2022-08-07T10:14:30.385Z,1.00
2022-08-07T10:17:14.084Z,1.20
2022-08-07T10:19:59.512Z,1.02
2022-08-07T10:22:47.435Z,0.90
2022-08-07T10:25:42.319Z,1.00
2022-08-07T10:28:38.127Z,1.10
2022-08-07T10:31:28.391Z,1.10
2022-08-07T10:34:18.227Z,1.10
2022-08-07T10:37:09.297Z,1.13
2022-08-07T10:40:03.551Z,1.27
2022-08-07T10:42:40.297Z,1.20
2022-08-07T10:45:44.420Z,1.02
2022-08-07T10:48:38.156Z,1.30
2022-08-07T10:51:16.929Z,1.20
2022-08-07T10:54:08.497Z,1.00
2022-08-07T10:56:43.263Z,1.52
2022-08-07T10:59:21.465Z,1.35
2022-08-07T11:02:05.516Z,1.15
2022-08-07T11:04:55.701Z,1.33
2022-08-07T11:07:59.508Z,1.38
2022-08-07T11:10:41.287Z,1.30
2022-08-07T11:13:42.479Z,1.13
2022-08-07T11:16:08.819Z,0.90
2022-08-07T11:18:42.463Z,1.10
2022-08-07T11:21:17.677Z,1.00
2022-08-07T11:23:59.639Z,1.30
2022-08-07T11:26:38.531Z,1.10
2022-08-07T11:29:40.999Z,0.90
2022-08-07T11:32:12.268Z,1.02
2022-08-07T11:34:45.352Z,1.00
2022-08-07T11:37:22.570Z,1.05
2022-08-07T11:40:06.270Z,1.10
2022-08-07T11:42:46.753Z,0.95
2022-08-07T11:45:35.293Z,1.23
2022-08-07T11:49:28.643Z,1.00
2022-08-07T11:52:07.658Z,1.40
2022-08-07T11:54:54.497Z,1.20
2022-08-07T11:57:57.870Z,1.45
2022-08-07T12:00:27.632Z,1.00
2022-08-07T12:03:41.403Z,1.23
2022-08-07T12:06:38.863Z,1.10
2022-08-07T12:09:16.751Z,1.17
2022-08-07T12:12:09.525Z,1.30
2022-08-07T12:14:52.713Z,0.93
2022-08-07T12:17:38.106Z,0.90
2022-08-07T12:20:26.255Z,1.08
2022-08-07T12:23:17.934Z,1.23
2022-08-07T12:26:21.591Z,1.20
2022-08-07T12:28:56.947Z,1.10
2022-08-07T12:31:53.395Z,1.20
2022-08-07T12:34:25.890Z,1.23
2022-08-07T12:36:58.805Z,1.13
2022-08-07T12:39:43.590Z,1.15
2022-08-07T12:42:27.246Z,1.15
2022-08-07T12:44:58.047Z,1.20
2022-08-07T12:47:37.701Z,1.25
2022-08-07T12:50:39.649Z,1.17
2022-08-07T12:53:17.901Z,1.10
2022-08-07T12:56:03.225Z,1.02
2022-08-07T12:58:39.980Z,1.13
2022-08-07T13:01:32.217Z,1.20
2022-08-07T13:08:12.622Z,1.30
2022-08-07T13:10:39.199Z,1.55
2022-08-07T13:13:48.122Z,1.00
2022-08-07T13:16:15.833Z,1.02
2022-08-07T13:18:51.514Z,1.38
2022-08-07T13:21:50.110Z,1.13
2022-08-07T13:24:25.763Z,1.00
2022-08-07T13:27:00.484Z,1.23
2022-08-07T13:29:37.126Z,1.20
2022-08-07T13:32:32.037Z,1.00
2022-08-07T13:35:08.432Z,1.08
2022-08-07T13:37:55.592Z,1.23
2022-08-07T13:40:36.026Z,1.15
2022-08-07T13:43:13.334Z,1.17
2022-08-07T13:46:21.530Z,1.17
2022-08-07T13:48:38.420Z,1.10
2022-08-07T13:51:27.944Z,1.05
2022-08-07T13:54:00.657Z,1.08
2022-08-07T13:56:35.400Z,1.00
2022-08-07T13:59:15.149Z,1.35
2022-08-07T14:02:03.729Z,0.90
2022-08-07T14:04:50.247Z,1.30
2022-08-07T14:07:24.494Z,1.35
2022-08-07T14:10:12.486Z,1.35
2022-08-07T14:12:49.255Z,1.20
2022-08-07T14:15:32.005Z,1.13
2022-08-07T14:18:23.629Z,1.13
2022-08-07T14:21:08.458Z,1.27
2022-08-07T14:24:01.272Z,1.20
2022-08-07T14:26:36.218Z,1.15
2022-08-07T14:30:02.621Z,1.42
2022-08-07T14:32:00.218Z,1.30
2022-08-07T14:34:30.498Z,1.20
2022-08-07T14:37:03.120Z,1.23
2022-08-07T14:40:17.751Z,1.27
2022-08-07T14:42:26.497Z,1.10
2022-08-07T14:45:22.127Z,1.10
2022-08-07T14:47:51.259Z,1.00
2022-08-07T14:50:28.843Z,1.10
2022-08-07T14:58:28.098Z,1.40
2022-08-07T15:00:59.270Z,2.10
2022-08-07T15:03:52.628Z,1.50
2022-08-07T15:06:23.293Z,1.20
2022-08-07T15:08:55.809Z,1.35
2022-08-07T15:11:53.434Z,1.60
2022-08-07T15:14:17.690Z,1.13
2022-08-07T15:16:55.062Z,1.08
2022-08-07T15:20:30.654Z,1.10
2022-08-07T15:22:29.379Z,1.20
2022-08-07T15:33:42.841Z,1.10
2022-08-07T15:36:11.654Z,1.10
2022-08-07T15:42:43.429Z,1.17
2022-08-07T15:46:57.601Z,0.90
2022-08-07T15:50:03.910Z,0.90
2022-08-07T15:52:20.942Z,1.02
2022-08-07T15:54:52.011Z,0.90
2022-08-07T15:57:28.008Z,1.00
2022-08-07T16:00:09.496Z,1.35
2022-08-07T16:02:59.127Z,1.13
2022-08-07T16:05:31.264Z,1.20
2022-08-07T16:08:31.646Z,0.93
2022-08-07T16:11:00.024Z,0.82
2022-08-07T16:14:05.782Z,0.80
2022-08-07T16:16:57.046Z,1.33
2022-08-07T16:19:42.680Z,1.00
2022-08-07T16:22:55.057Z,1.00
2022-08-07T16:25:54.188Z,0.90
2022-08-07T16:30:06.569Z,0.93
2022-08-07T16:31:51.667Z,1.15
2022-08-07T16:34:40.288Z,0.95
2022-08-07T16:38:06.231Z,0.88
2022-08-07T16:40:51.160Z,1.02
2022-08-07T16:44:06.280Z,1.10
2022-08-07T16:47:04.690Z,1.10
2022-08-07T16:50:28.787Z,1.00
2022-08-07T16:54:01.236Z,1.10
2022-08-07T16:56:06.672Z,0.95
2022-08-07T16:59:10.866Z,1.08
2022-08-07T17:01:59.411Z,1.10
2022-08-07T17:04:50.853Z,1.00
2022-08-07T17:07:55.710Z,0.93
2022-08-07T17:10:32.579Z,1.30
2022-08-07T17:13:38.901Z,0.90
2022-08-07T17:16:20.591Z,1.00
2022-08-07T17:19:01.666Z,1.13
2022-08-07T17:21:51.231Z,0.93
2022-08-07T17:24:31.666Z,0.90
2022-08-07T17:27:04.254Z,1.02
2022-08-07T17:30:16.192Z,0.98
2022-08-07T17:32:52.914Z,1.10
2022-08-07T17:35:49.664Z,1.00
2022-08-07T17:38:33.414Z,0.98
2022-08-07T17:42:02.409Z,1.02
2022-08-07T17:44:02.212Z,0.90
2022-08-07T17:46:40.549Z,0.95
2022-08-07T17:49:14.704Z,1.10
2022-08-07T17:52:00.459Z,1.13
2022-08-07T17:54:40.228Z,1.00
2022-08-07T17:57:56.625Z,1.00
2022-08-07T18:00:33.231Z,0.90
2022-08-07T18:03:18.246Z,1.27
2022-08-07T18:09:01.046Z,0.77
2022-08-07T18:12:08.214Z,1.10
2022-08-07T18:14:30.139Z,0.90
2022-08-07T18:17:05.295Z,1.00
2022-08-07T18:21:12.328Z,1.00
2022-08-07T18:22:35.458Z,1.00
2022-08-07T18:25:19.056Z,0.88
2022-08-07T18:28:33.908Z,1.00
2022-08-07T18:31:04.240Z,1.10
2022-08-07T18:33:57.152Z,1.00
2022-08-07T18:36:39.457Z,1.10
2022-08-07T18:40:06.997Z,0.80
2022-08-07T18:42:17.676Z,1.00
2022-08-07T18:45:44.167Z,1.00
2022-08-07T18:48:01.058Z,1.00
2022-08-07T18:50:53.342Z,0.90
2022-08-07T18:53:36.517Z,1.35
2022-08-07T18:56:14.048Z,0.98
2022-08-07T18:59:48.005Z,1.20
2022-08-07T19:02:31.821Z,1.63
2022-08-07T19:05:15.990Z,1.10
2022-08-07T19:07:58.547Z,1.02
2022-08-07T19:10:41.145Z,1.25
2022-08-07T19:13:23.202Z,1.02
2022-08-07T19:16:05.382Z,1.10
2022-08-07T19:18:58.300Z,1.20
2022-08-07T19:21:44.112Z,1.20
2022-08-07T19:24:30.887Z,1.40
2022-08-07T19:28:58.621Z,1.30
2022-08-07T19:30:58.702Z,1.30
2022-08-07T19:32:51.231Z,1.30
2022-08-07T19:35:22.485Z,1.50
2022-08-07T19:37:56.994Z,1.30
2022-08-07T19:40:31.861Z,1.17
2022-08-07T19:43:10.993Z,1.60
2022-08-07T19:46:07.270Z,1.52
2022-08-07T19:48:54.088Z,1.42
2022-08-07T19:51:53.190Z,1.42
2022-08-07T19:54:34.344Z,1.50
2022-08-07T19:58:00.140Z,1.48
2022-08-07T19:59:55.963Z,2.10
2022-08-07T20:02:29.784Z,1.50
2022-08-07T20:05:02.729Z,1.70
2022-08-07T20:07:45.943Z,1.80
2022-08-07T20:10:37.085Z,1.50
2022-08-07T20:13:15.800Z,1.23
2022-08-07T20:15:54.049Z,1.40
2022-08-07T20:18:33.823Z,1.42
2022-08-07T20:21:14.874Z,1.48
2022-08-07T20:23:54.266Z,1.85
2022-08-07T20:26:32.513Z,1.48
2022-08-07T20:29:10.414Z,1.52
2022-08-07T20:31:46.421Z,1.67
2022-08-07T20:34:15.068Z,1.70
2022-08-07T20:36:51.684Z,1.60
2022-08-07T20:40:01.275Z,1.40
2022-08-07T20:42:12.435Z,1.70
2022-08-07T20:44:45.604Z,1.70
2022-08-07T20:47:25.139Z,1.55
2022-08-07T20:50:01.465Z,1.83
2022-08-07T20:52:52.048Z,1.60
2022-08-07T20:55:23.552Z,1.60
2022-08-07T20:58:02.629Z,1.55
2022-08-07T21:00:39.219Z,1.50
2022-08-07T21:03:12.185Z,1.17
2022-08-07T21:05:55.923Z,1.40
2022-08-07T21:08:38.189Z,1.40
2022-08-07T21:11:14.463Z,1.80
2022-08-07T21:14:29.523Z,1.30
2022-08-07T21:16:55.874Z,1.40
2022-08-07T21:19:32.131Z,1.40
2022-08-07T21:22:15.873Z,1.80
2022-08-07T21:25:04.685Z,1.38
2022-08-07T21:27:53.986Z,1.40
2022-08-07T21:30:37.832Z,1.40
2022-08-07T21:33:14.990Z,1.33
2022-08-07T21:36:05.652Z,1.30
2022-08-07T21:41:22.463Z,1.73
2022-08-07T21:44:01.566Z,1.50
2022-08-07T21:46:40.480Z,1.45
2022-08-07T21:49:15.150Z,1.33
2022-08-07T21:52:05.924Z,1.40
2022-08-07T21:54:52.846Z,1.70
2022-08-07T21:57:44.601Z,1.17
2022-08-07T22:00:22.051Z,1.40
2022-08-07T22:02:57.059Z,1.13
2022-08-07T22:05:46.257Z,1.35
2022-08-07T22:08:22.026Z,1.50
2022-08-07T22:10:57.914Z,1.40
2022-08-07T22:13:52.648Z,1.20
2022-08-07T22:16:39.292Z,1.42
2022-08-07T22:19:11.800Z,1.65
2022-08-07T22:22:02.679Z,1.15
2022-08-07T22:24:37.626Z,1.25
2022-08-07T22:27:12.874Z,1.83
2022-08-07T22:29:51.669Z,1.50
2022-08-07T22:32:33.520Z,1.40
2022-08-07T22:35:02.405Z,1.73
2022-08-07T22:38:03.286Z,1.40
2022-08-07T22:40:33.358Z,1.38
2022-08-07T22:43:08.879Z,1.45
2022-08-07T22:46:46.873Z,1.60
2022-08-07T22:49:15.918Z,1.55
2022-08-07T22:51:57.291Z,1.70
2022-08-07T22:54:48.954Z,1.60
2022-08-07T22:57:40.914Z,1.30
2022-08-07T23:00:17.068Z,1.20
2022-08-07T23:03:00.379Z,1.20
2022-08-07T23:06:07.730Z,1.40
2022-08-07T23:08:55.718Z,1.42
2022-08-07T23:11:44.340Z,1.38
2022-08-07T23:14:35.831Z,1.27
2022-08-07T23:17:22.777Z,1.20
2022-08-07T23:20:07.411Z,1.35
2022-08-07T23:22:48.089Z,1.60
2022-08-07T23:25:32.566Z,1.50
2022-08-07T23:31:13.860Z,1.45
2022-08-07T23:34:38.169Z,1.67
2022-08-07T23:37:32.639Z,1.60
2022-08-07T23:40:12.214Z,2.20
2022-08-07T23:42:54.889Z,2.00
2022-08-07T23:46:01.935Z,1.65
2022-08-07T23:48:40.187Z,1.80
2022-08-07T23:52:57.060Z,1.63
2022-08-07T23:54:19.657Z,1.77
2022-08-07T23:57:09.384Z,1.48
